Time;durP1;ratioP1;P1;durP2;ratioP2;P2;SDS_P1;SDS_P2;PMS_P1;PMS_P2;Temp;Humidity;BMP_temperature;BMP_pressure;BME280_temperature;BME280_humidity;BME280_pressure;Samples;Min_cycle;Max_cycle;Signal;HPM_P1;HPM_P2
2021/05/10 00:00:06;;;;;;;;;;;;;;;19.89;45.13;100021.50;5038273;28;1938;-77
2021/05/10 00:02:32;;;;;;;;;;;;;;;19.88;44.68;100017.91;5037280;28;2060;-77
2021/05/10 00:04:57;;;;;;;;;;;;;;;19.94;44.37;100017.41;5038164;28;884;-77
2021/05/10 00:07:22;;;;;;;;;;;;;;;19.90;44.67;100021.06;5037812;28;1893;-77
2021/05/10 00:09:48;;;;;;;;;;;;;;;19.83;44.66;100020.38;5037152;28;1256;-77
2021/05/10 00:12:13;;;;;;;;;;;;;;;19.80;44.84;100026.88;5037574;28;2021;-77
2021/05/10 00:14:41;;;;;;;;;;;;;;;19.75;44.95;100025.34;5037249;28;856;-77
2021/05/10 00:17:07;;;;;;;;;;;;;;;19.73;44.74;100022.94;5036737;28;1908;-77
2021/05/10 00:19:32;;;;;;;;;;;;;;;19.76;44.26;100028.91;5036786;28;1295;-77
2021/05/10 00:21:58;;;;;;;;;;;;;;;19.69;44.89;100027.81;5036607;28;1925;-77
2021/05/10 00:24:23;;;;;;;;;;;;;;;19.62;44.92;100027.94;5037498;28;844;-77
2021/05/10 00:26:49;;;;;;;;;;;;;;;19.57;45.06;100031.22;5037449;28;1945;-77
2021/05/10 00:29:17;;;;;;;;;;;;;;;19.49;45.20;100026.94;5036489;28;1165;-77
2021/05/10 00:31:43;;;;;;;;;;;;;;;19.40;45.40;100033.09;5036684;28;2050;-77
2021/05/10 00:34:08;;;;;;;;;;;;;;;19.30;45.87;100034.81;5037079;28;2510;-77
2021/05/10 00:36:33;;;;;;;;;;;;;;;19.23;46.15;100034.94;5037033;28;1046;-77
2021/05/10 00:38:59;;;;;;;;;;;;;;;19.14;46.26;100040.28;5036327;28;1185;-77
2021/05/10 00:41:24;;;;;;;;;;;;;;;19.07;46.25;100048.78;5037208;28;814;-77
2021/05/10 00:43:49;;;;;;;;;;;;;;;19.05;46.10;100046.41;5036580;28;2271;-77
2021/05/10 00:46:15;;;;;;;;;;;;;;;19.01;46.00;100048.44;5036533;28;1990;-77
2021/05/10 00:48:40;;;;;;;;;;;;;;;19.04;45.63;100047.59;5036303;28;1984;-77
2021/05/10 00:51:05;;;;;;;;;;;;;;;19.06;45.48;100053.56;5037184;28;881;-77
2021/05/10 00:53:30;;;;;;;;;;;;;;;19.00;45.83;100051.66;5036456;28;1939;-77
2021/05/10 00:55:56;;;;;;;;;;;;;;;18.97;45.71;100065.28;5036625;28;845;-77
2021/05/10 00:58:22;;;;;;;;;;;;;;;18.97;45.78;100072.88;5036799;28;1177;-81
2021/05/10 01:00:47;;;;;;;;;;;;;;;18.99;45.40;100070.44;5037224;28;908;-77
2021/05/10 01:03:13;;;;;;;;;;;;;;;18.90;45.52;100070.97;5035875;28;1883;-77
2021/05/10 01:05:39;;;;;;;;;;;;;;;18.86;45.86;100077.81;5036024;28;2054;-77
2021/05/10 01:08:06;;;;;;;;;;;;;;;18.85;45.65;100079.81;5036059;28;1181;-77
2021/05/10 01:10:31;;;;;;;;;;;;;;;18.82;45.90;100077.03;5036339;28;841;-77
2021/05/10 01:12:56;;;;;;;;;;;;;;;18.77;46.20;100076.31;5036731;28;843;-77
2021/05/10 01:15:25;;;;;;;;;;;;;;;18.69;46.65;100076.81;5036245;28;2022;-77
2021/05/10 01:17:52;;;;;;;;;;;;;;;18.62;46.66;100074.88;5035866;28;1796;-77
2021/05/10 01:20:19;;;;;;;;;;;;;;;18.53;46.73;100089.38;5036101;28;1237;-77
2021/05/10 01:22:47;;;;;;;;;;;;;;;18.37;47.07;100059.19;5036442;28;861;-77
2021/05/10 01:25:18;;;;;;;;;;;;;;;18.36;47.48;100085.56;5036218;28;2073;-78
2021/05/10 01:27:44;;;;;;;;;;;;;;;18.33;47.56;100064.03;5035832;28;1894;-77
2021/05/10 01:30:15;;;;;;;;;;;;;;;18.34;47.70;100073.19;5036620;28;1276;-77
2021/05/10 01:32:40;;;;;;;;;;;;;;;18.27;47.76;100087.25;5034558;28;2064;-77
2021/05/10 01:35:09;;;;;;;;;;;;;;;18.21;48.17;100084.91;5035539;28;874;-77
2021/05/10 01:37:34;;;;;;;;;;;;;;;18.20;47.98;100090.91;5034556;28;913;-77
2021/05/10 01:40:00;;;;;;;;;;;;;;;18.13;48.24;100083.38;5036368;28;1166;-77
2021/05/10 01:42:25;;;;;;;;;;;;;;;18.08;48.69;100088.63;5036122;28;2028;-77
2021/05/10 01:44:50;;;;;;;;;;;;;;;18.02;48.92;100083.47;5036114;28;1046;-77
2021/05/10 01:47:16;;;;;;;;;;;;;;;17.95;48.93;100091.16;5035390;28;2139;-77
2021/05/10 01:49:48;;;;;;;;;;;;;;;18.00;49.07;100080.31;5035331;28;1181;-77
2021/05/10 01:52:15;;;;;;;;;;;;;;;17.97;49.10;100072.75;5034687;28;1855;-77
2021/05/10 01:54:46;;;;;;;;;;;;;;;17.94;49.31;100081.94;5035373;28;1016;-77
2021/05/10 01:57:12;;;;;;;;;;;;;;;17.92;49.37;100087.16;5036204;28;907;-77
2021/05/10 01:59:37;;;;;;;;;;;;;;;17.91;49.37;100087.56;5035146;28;1252;-77
2021/05/10 02:02:03;;;;;;;;;;;;;;;17.88;49.69;100075.25;5035719;28;1852;-77
2021/05/10 02:04:28;;;;;;;;;;;;;;;17.84;49.57;100072.44;5035752;28;941;-77
2021/05/10 02:07:01;;;;;;;;;;;;;;;17.78;49.95;100062.91;5035993;28;1890;-76
2021/05/10 02:09:26;;;;;;;;;;;;;;;17.67;50.01;100060.22;5035105;28;1189;-77
2021/05/10 02:11:52;;;;;;;;;;;;;;;17.53;50.48;100051.16;5035029;28;1792;-77
2021/05/10 02:14:17;;;;;;;;;;;;;;;17.31;51.36;100061.72;5035701;28;2106;-77
2021/05/10 02:16:42;;;;;;;;;;;;;;;17.11;52.07;100056.63;5035448;28;987;-77
2021/05/10 02:19:08;;;;;;;;;;;;;;;16.96;52.80;100060.69;5035021;28;2124;-77
2021/05/10 02:21:33;;;;;;;;;;;;;;;16.85;52.91;100056.00;5050638;28;1058;-77
2021/05/10 02:23:59;;;;;;;;;;;;;;;16.74;53.59;100050.41;5035426;28;2068;-77
2021/05/10 02:26:24;;;;;;;;;;;;;;;16.68;54.08;100051.25;5035139;28;1894;-77
2021/05/10 02:28:50;;;;;;;;;;;;;;;16.63;53.80;100052.47;5034565;28;1256;-77
2021/05/10 02:31:15;;;;;;;;;;;;;;;16.59;53.98;100054.47;5035227;28;995;-77
2021/05/10 02:33:40;;;;;;;;;;;;;;;16.59;54.08;100050.88;5034769;28;2091;-77
2021/05/10 02:36:06;;;;;;;;;;;;;;;16.54;54.08;100050.13;5035506;28;987;-77
2021/05/10 02:38:31;;;;;;;;;;;;;;;16.53;54.12;100056.09;5034329;28;1221;-77
2021/05/10 02:40:56;;;;;;;;;;;;;;;16.55;53.99;100057.25;5035236;28;980;-77
2021/05/10 02:43:24;;;;;;;;;;;;;;;16.62;54.02;100066.81;5034661;28;2026;-77
2021/05/10 02:45:51;;;;;;;;;;;;;;;16.61;53.91;100065.22;5037943;28;2021;-77
2021/05/10 02:48:16;;;;;;;;;;;;;;;16.62;53.96;100062.00;5038020;28;2073;-77
2021/05/10 02:50:42;;;;;;;;;;;;;;;16.70;53.62;100073.94;5039385;28;863;-77
2021/05/10 02:53:08;;;;;;;;;;;;;;;16.73;53.32;100061.97;5039090;28;2026;-77
2021/05/10 02:55:33;;;;;;;;;;;;;;;16.71;53.48;100072.72;5038967;28;839;-77
2021/05/10 02:57:59;;;;;;;;;;;;;;;16.69;53.52;100072.34;5038076;28;1271;-77
2021/05/10 03:00:26;;;;;;;;;;;;;;;16.68;53.75;100067.97;5038810;28;972;-77
2021/05/10 03:02:53;;;;;;;;;;;;;;;16.65;53.97;100066.78;5038685;28;1824;-77
2021/05/10 03:05:19;;;;;;;;;;;;;;;16.59;54.19;100073.19;5039242;28;904;-77
2021/05/10 03:07:44;;;;;;;;;;;;;;;16.55;53.97;100073.97;5038714;28;1902;-77
2021/05/10 03:10:12;;;;;;;;;;;;;;;16.50;54.37;100085.53;5038867;28;1233;-77
2021/05/10 03:12:39;;;;;;;;;;;;;;;16.46;54.28;100081.97;5038799;28;2032;-77
2021/05/10 03:15:07;;;;;;;;;;;;;;;16.45;54.12;100074.81;5039161;28;845;-77
2021/05/10 03:17:33;;;;;;;;;;;;;;;16.38;54.42;100074.84;5037906;28;1836;-77
2021/05/10 03:19:58;;;;;;;;;;;;;;;16.32;54.62;100073.66;5040271;28;1181;-77
2021/05/10 03:22:24;;;;;;;;;;;;;;;16.28;54.69;100062.53;5043235;28;1965;-77
2021/05/10 03:24:49;;;;;;;;;;;;;;;16.26;55.04;100055.75;5042796;28;945;-76
2021/05/10 03:27:14;;;;;;;;;;;;;;;16.23;55.40;100059.34;5043700;28;1961;-76
2021/05/10 03:29:40;;;;;;;;;;;;;;;16.15;55.59;100053.00;5044440;28;1174;-76
2021/05/10 03:32:05;;;;;;;;;;;;;;;16.14;55.60;100043.88;5042483;28;1959;-78
2021/05/10 03:34:30;;;;;;;;;;;;;;;16.20;55.50;100040.69;5039526;28;991;-78
2021/05/10 03:36:56;;;;;;;;;;;;;;;16.31;54.94;100047.00;5038872;28;965;-77
2021/05/10 03:39:21;;;;;;;;;;;;;;;16.43;54.63;100046.56;5038499;28;1197;-77
2021/05/10 03:41:46;;;;;;;;;;;;;;;16.51;54.06;100044.56;5038629;28;2060;-78
2021/05/10 03:44:11;;;;;;;;;;;;;;;16.57;53.74;100034.56;5038564;28;2138;-79
2021/05/10 03:46:37;;;;;;;;;;;;;;;16.63;53.68;100034.94;5039493;28;1963;-79
2021/05/10 03:49:02;;;;;;;;;;;;;;;16.66;53.37;100029.38;5036864;28;2114;-78
2021/05/10 03:51:28;;;;;;;;;;;;;;;16.68;52.99;100024.19;5037712;28;1012;-78
2021/05/10 03:53:53;;;;;;;;;;;;;;;16.68;52.87;100028.94;5037640;28;1035;-79
2021/05/10 03:56:18;;;;;;;;;;;;;;;16.66;52.95;100023.78;5036665;28;842;-78
2021/05/10 03:58:44;;;;;;;;;;;;;;;16.68;53.13;100028.94;5036471;28;2202;-77
2021/05/10 04:01:10;;;;;;;;;;;;;;;16.69;53.01;100031.31;5036686;28;810;-78
2021/05/10 04:03:42;;;;;;;;;;;;;;;16.75;52.55;100028.94;5037601;28;2063;-78
2021/05/10 04:06:21;;;;;;;;;;;;;;;16.81;52.79;100010.56;5037717;28;1898;-77
2021/05/10 04:09:04;;;;;;;;;;;;;;;16.85;52.51;100007.78;5036753;28;2154;-77
2021/05/10 04:13:35;;;;;;;;;;;;;;;16.93;52.34;100009.34;5038711;28;853;-78
2021/05/10 04:14:15;;;;;;;;;;;;;;;17.01;52.10;100007.28;5039051;28;1058;-79
2021/05/10 04:16:40;;;;;;;;;;;;;;;17.05;52.22;99996.91;5037858;28;802;-78
2021/05/10 04:19:05;;;;;;;;;;;;;;;17.08;52.18;99998.91;5037352;28;2212;-77
2021/05/10 04:21:31;;;;;;;;;;;;;;;17.12;52.16;99999.66;5038080;28;2116;-77
2021/05/10 04:23:56;;;;;;;;;;;;;;;17.17;52.20;99984.50;5037555;28;1942;-81
2021/05/10 04:26:21;;;;;;;;;;;;;;;17.23;51.77;99997.59;5039073;28;1973;-78
2021/05/10 04:28:47;;;;;;;;;;;;;;;17.31;52.14;100000.31;5052870;28;1208;-77
2021/05/10 04:31:12;;;;;;;;;;;;;;;17.35;51.89;99999.06;5037662;28;1946;-77
2021/05/10 04:33:37;;;;;;;;;;;;;;;17.43;51.66;100005.41;5038328;28;2095;-77
2021/05/10 04:36:03;;;;;;;;;;;;;;;17.50;51.41;100010.16;5036725;28;2113;-77
2021/05/10 04:38:29;;;;;;;;;;;;;;;17.59;51.28;99999.28;5036895;28;1189;-77
2021/05/10 04:40:55;;;;;;;;;;;;;;;17.69;50.63;99998.41;5029664;28;3446;-78
2021/05/10 04:43:21;;;;;;;;;;;;;;;17.83;50.27;100000.25;5020493;28;3447;-77
2021/05/10 04:45:46;;;;;;;;;;;;;;;17.99;49.77;99988.56;5015525;28;1902;-77
2021/05/10 04:48:12;;;;;;;;;;;;;;;18.09;49.11;99986.88;5035019;28;1982;-79
2021/05/10 04:50:37;;;;;;;;;;;;;;;18.28;48.69;99999.44;5038301;28;980;-77
2021/05/10 04:53:02;;;;;;;;;;;;;;;18.50;48.41;100003.53;5038129;28;797;-77
2021/05/10 04:55:28;;;;;;;;;;;;;;;18.67;47.71;99998.94;5037743;28;1950;-77
2021/05/10 04:57:54;;;;;;;;;;;;;;;18.74;47.36;99995.25;5037353;28;1039;-78
2021/05/10 05:00:20;;;;;;;;;;;;;;;18.80;47.28;100011.13;5037628;28;1217;-77
2021/05/10 05:02:46;;;;;;;;;;;;;;;18.85;47.25;100009.91;5037902;28;1910;-78
2021/05/10 05:05:12;;;;;;;;;;;;;;;18.91;46.93;100010.22;5038203;28;833;-78
2021/05/10 05:07:39;;;;;;;;;;;;;;;18.99;46.72;100008.91;5036912;28;1886;-77
2021/05/10 05:10:06;;;;;;;;;;;;;;;19.06;46.40;99994.03;5037440;28;2289;-78
2021/05/10 05:12:31;;;;;;;;;;;;;;;19.14;45.99;99987.91;5039871;28;993;-77
2021/05/10 05:14:56;;;;;;;;;;;;;;;19.27;45.92;99996.47;5040514;28;912;-77
2021/05/10 05:17:22;;;;;;;;;;;;;;;19.31;45.45;99999.22;5038226;28;1929;-78
2021/05/10 05:19:47;;;;;;;;;;;;;;;19.38;45.66;99990.75;5037170;28;1872;-77
2021/05/10 05:22:12;;;;;;;;;;;;;;;19.43;45.60;99998.66;5039191;28;904;-77
2021/05/10 05:24:38;;;;;;;;;;;;;;;19.42;45.26;99999.84;5037664;28;2066;-77
2021/05/10 05:27:03;;;;;;;;;;;;;;;19.42;45.48;100004.66;5037885;28;2150;-77
2021/05/10 05:29:29;;;;;;;;;;;;;;;19.48;45.35;100005.75;5037828;28;1280;-77
2021/05/10 05:31:57;;;;;;;;;;;;;;;19.52;45.43;100012.88;5037343;28;1973;-77
2021/05/10 05:34:22;;;;;;;;;;;;;;;19.53;45.22;100022.88;5017045;28;925;-78
2021/05/10 05:36:48;;;;;;;;;;;;;;;19.63;45.15;100018.31;5017310;28;995;-77
2021/05/10 05:39:13;;;;;;;;;;;;;;;19.79;44.91;100023.25;5020585;28;2172;-77
2021/05/10 05:41:38;;;;;;;;;;;;;;;20.01;44.75;100015.25;5036473;28;1942;-77
2021/05/10 05:44:05;;;;;;;;;;;;;;;20.19;43.85;100030.94;5038727;28;857;-78
2021/05/10 05:46:33;;;;;;;;;;;;;;;20.53;43.47;100010.25;5036864;28;1959;-77
2021/05/10 05:48:58;;;;;;;;;;;;;;;20.93;42.36;100021.44;5034914;28;1965;-78
2021/05/10 05:51:24;;;;;;;;;;;;;;;21.00;42.14;100018.47;5036935;28;985;-78
2021/05/10 05:53:54;;;;;;;;;;;;;;;20.94;42.21;100023.03;5038051;28;908;-77
2021/05/10 05:56:20;;;;;;;;;;;;;;;20.90;42.35;100019.50;5037273;28;2100;-77
2021/05/10 05:58:46;;;;;;;;;;;;;;;20.82;42.51;100022.47;5035990;28;1872;-77
2021/05/10 06:01:11;;;;;;;;;;;;;;;20.82;42.91;100022.47;5036062;28;891;-77
2021/05/10 06:03:37;;;;;;;;;;;;;;;20.89;42.42;100020.75;5036107;28;2038;-77
2021/05/10 06:06:02;;;;;;;;;;;;;;;21.05;42.29;100026.38;5037159;28;1893;-78
2021/05/10 06:08:29;;;;;;;;;;;;;;;21.09;42.44;100035.50;5037673;28;1580;-78
2021/05/10 06:10:54;;;;;;;;;;;;;;;21.34;41.90;100034.16;5037153;28;1946;-78
2021/05/10 06:13:19;;;;;;;;;;;;;;;21.58;40.95;100041.19;5036975;28;1307;-78
2021/05/10 06:15:45;;;;;;;;;;;;;;;21.71;40.75;100052.50;5037414;28;908;-79
2021/05/10 06:18:10;;;;;;;;;;;;;;;22.11;39.84;100046.69;5038191;28;1943;-79
2021/05/10 06:20:36;;;;;;;;;;;;;;;22.57;39.09;100045.88;5040933;28;1104;-78
2021/05/10 06:23:02;;;;;;;;;;;;;;;23.12;38.33;100054.28;5042013;28;954;-78
2021/05/10 06:25:28;;;;;;;;;;;;;;;23.56;36.97;100049.66;5074165;28;931;-78
2021/05/10 06:27:53;;;;;;;;;;;;;;;24.33;36.13;100049.50;5039460;28;2054;-78
2021/05/10 06:30:19;;;;;;;;;;;;;;;24.43;34.89;100055.19;5043340;28;1261;-79
2021/05/10 06:32:44;;;;;;;;;;;;;;;24.33;35.34;100051.53;5042043;28;2131;-78
2021/05/10 06:35:10;;;;;;;;;;;;;;;24.51;35.12;100050.88;5043545;28;1073;-77
2021/05/10 06:37:35;;;;;;;;;;;;;;;24.06;35.72;100050.03;5040712;28;1867;-78
2021/05/10 06:40:01;;;;;;;;;;;;;;;22.97;37.52;100060.34;5040602;28;1193;-79
2021/05/10 06:42:26;;;;;;;;;;;;;;;22.51;38.98;100057.66;5040739;28;937;-77
2021/05/10 06:44:52;;;;;;;;;;;;;;;22.27;39.26;100053.47;5039692;28;948;-79
2021/05/10 06:47:17;;;;;;;;;;;;;;;22.20;39.96;100065.72;5039751;28;2137;-77
2021/05/10 06:49:43;;;;;;;;;;;;;;;22.50;39.34;100064.50;5039424;28;1280;-77
2021/05/10 06:52:08;;;;;;;;;;;;;;;24.63;35.60;100061.31;5039811;28;865;-77
2021/05/10 06:54:34;;;;;;;;;;;;;;;25.67;32.58;100060.09;5040872;28;813;-78
2021/05/10 06:57:01;;;;;;;;;;;;;;;24.16;35.01;100060.16;5039341;28;2044;-79
2021/05/10 06:59:26;;;;;;;;;;;;;;;23.91;35.90;100072.28;5036783;28;1849;-77
2021/05/10 07:01:51;;;;;;;;;;;;;;;24.11;35.23;100072.00;5039521;28;980;-78
2021/05/10 07:04:17;;;;;;;;;;;;;;;23.92;36.00;100090.78;5040392;28;2002;-78
2021/05/10 07:06:43;;;;;;;;;;;;;;;23.86;36.03;100081.31;5040451;28;1960;-78
2021/05/10 07:09:08;;;;;;;;;;;;;;;24.27;35.63;100078.72;5040617;28;1240;-78
2021/05/10 07:11:34;;;;;;;;;;;;;;;24.37;35.36;100083.97;5042188;28;988;-77
2021/05/10 07:13:59;;;;;;;;;;;;;;;23.96;35.69;100080.16;5042415;28;888;-77
2021/05/10 07:16:25;;;;;;;;;;;;;;;23.57;36.54;100076.59;5078946;28;1923;-79
2021/05/10 07:18:51;;;;;;;;;;;;;;;23.35;36.80;100079.31;5041137;28;1923;-80
2021/05/10 07:21:16;;;;;;;;;;;;;;;23.53;36.47;100089.22;5041224;28;1315;-77
2021/05/10 07:23:42;;;;;;;;;;;;;;;23.71;36.11;100097.13;5038787;28;809;-78
2021/05/10 07:26:07;;;;;;;;;;;;;;;23.99;36.11;100112.31;5039414;28;1882;-78
2021/05/10 07:28:32;;;;;;;;;;;;;;;23.89;35.64;100113.47;5039552;28;2208;-78
2021/05/10 07:30:58;;;;;;;;;;;;;;;23.70;36.46;100104.75;5041283;28;1932;-79
2021/05/10 07:33:23;;;;;;;;;;;;;;;23.32;36.70;100093.50;5045042;28;2000;-80
2021/05/10 07:35:48;;;;;;;;;;;;;;;23.20;37.82;100100.72;5048741;28;1016;-80
2021/05/10 07:38:13;;;;;;;;;;;;;;;23.05;37.47;100114.41;5046222;28;1923;-80
2021/05/10 07:40:40;;;;;;;;;;;;;;;22.85;38.04;100103.31;5045119;28;1110;-79
2021/05/10 07:43:06;;;;;;;;;;;;;;;22.34;38.86;100107.53;5045616;28;976;-79
2021/05/10 07:45:32;;;;;;;;;;;;;;;22.15;39.75;100116.88;5047027;28;1955;-80
2021/05/10 07:47:57;;;;;;;;;;;;;;;22.12;39.39;100107.28;5040620;28;1992;-78
2021/05/10 07:50:26;;;;;;;;;;;;;;;22.29;39.32;100096.03;5039082;28;860;-79
2021/05/10 07:52:52;;;;;;;;;;;;;;;22.43;39.06;100117.38;5044711;28;1291;-78
2021/05/10 07:55:18;;;;;;;;;;;;;;;22.71;38.47;100104.53;5043608;28;2027;-80
2021/05/10 07:57:44;;;;;;;;;;;;;;;23.54;36.50;100097.22;5043606;28;1011;-79
2021/05/10 08:00:14;;;;;;;;;;;;;;;23.72;35.96;100124.81;5040266;28;1189;-78
2021/05/10 08:02:39;;;;;;;;;;;;;;;23.13;37.57;100100.94;5045426;28;1824;-79
2021/05/10 08:05:05;;;;;;;;;;;;;;;23.70;36.17;100109.63;5042190;28;884;-78
2021/05/10 08:07:30;;;;;;;;;;;;;;;25.23;33.36;100099.78;5046074;28;1963;-78
2021/05/10 08:09:56;;;;;;;;;;;;;;;26.72;31.32;100106.59;5041340;28;1194;-77
2021/05/10 08:12:21;;;;;;;;;;;;;;;27.68;29.20;100094.81;5043426;28;1884;-78
2021/05/10 08:14:46;;;;;;;;;;;;;;;26.75;30.70;100105.63;5041369;28;2091;-78
2021/05/10 08:17:12;;;;;;;;;;;;;;;26.56;31.14;100077.31;5042298;28;1859;-78
2021/05/10 08:19:37;;;;;;;;;;;;;;;27.71;29.34;100086.13;5040680;28;1899;-78
2021/05/10 08:22:04;;;;;;;;;;;;;;;26.93;30.65;100082.94;5040661;28;849;-79
2021/05/10 08:24:31;;;;;;;;;;;;;;;26.26;32.12;100096.81;5040573;28;839;-78
2021/05/10 08:26:57;;;;;;;;;;;;;;;25.28;34.13;100096.41;5039990;28;1906;-78
2021/05/10 08:29:22;;;;;;;;;;;;;;;24.81;34.98;100102.22;5040521;28;1931;-79
2021/05/10 08:31:48;;;;;;;;;;;;;;;24.39;35.74;100104.06;5038862;28;1843;-78
2021/05/10 08:34:14;;;;;;;;;;;;;;;24.02;36.59;100117.03;5039246;28;2084;-78
2021/05/10 08:36:39;;;;;;;;;;;;;;;23.40;37.58;100100.50;5043054;28;979;-77
2021/05/10 08:39:08;;;;;;;;;;;;;;;23.48;36.85;100121.59;5039484;28;1848;-77
2021/05/10 08:41:37;;;;;;;;;;;;;;;23.30;37.62;100119.31;5037136;28;869;-77
2021/05/10 08:44:07;;;;;;;;;;;;;;;22.91;38.53;100122.03;5040286;28;797;-78
2021/05/10 08:46:33;;;;;;;;;;;;;;;23.23;38.40;100120.31;5040681;28;1902;-78
2021/05/10 08:48:59;;;;;;;;;;;;;;;24.43;36.06;100125.72;5038964;28;1871;-81
2021/05/10 08:51:26;;;;;;;;;;;;;;;26.26;32.90;100132.81;5038887;28;936;-77
2021/05/10 08:53:51;;;;;;;;;;;;;;;26.69;32.30;100138.69;5039826;28;841;-79
2021/05/10 08:56:17;;;;;;;;;;;;;;;27.92;30.20;100140.22;5038602;28;1000;-78
2021/05/10 08:58:44;;;;;;;;;;;;;;;27.25;31.32;100134.47;5038079;28;1931;-79
2021/05/10 09:01:10;;;;;;;;;;;;;;;27.35;31.12;100133.22;5041868;28;947;-78
2021/05/10 09:03:44;;;;;;;;;;;;;;;26.85;31.94;100141.16;5039417;28;1868;-79
2021/05/10 09:06:19;;;;;;;;;;;;;;;27.38;31.21;100151.31;5037502;28;1910;-77
2021/05/10 09:08:47;;;;;;;;;;;;;;;28.20;29.26;100145.72;5037482;28;2054;-77
2021/05/10 09:11:18;;;;;;;;;;;;;;;28.32;29.43;100142.63;5037496;28;816;-77
2021/05/10 09:14:03;;;;;;;;;;;;;;;28.46;29.08;100135.44;5039148;28;1055;-78
2021/05/10 09:16:34;;;;;;;;;;;;;;;28.32;29.65;100133.34;5040046;28;1133;-78
2021/05/10 09:19:00;;;;;;;;;;;;;;;30.03;27.49;100138.66;5038014;28;1942;-77
2021/05/10 09:21:28;;;;;;;;;;;;;;;30.44;26.20;100158.63;5038844;28;936;-77
2021/05/10 09:23:55;;;;;;;;;;;;;;;30.54;26.35;100137.25;5037772;28;833;-78
2021/05/10 09:26:28;;;;;;;;;;;;;;;29.27;27.77;100155.56;5039041;28;1965;-78
2021/05/10 09:28:53;;;;;;;;;;;;;;;29.51;27.33;100141.25;5037579;28;1271;-77
2021/05/10 09:31:18;;;;;;;;;;;;;;;30.34;26.42;100146.56;5039125;28;1012;-78
2021/05/10 09:33:46;;;;;;;;;;;;;;;31.24;25.01;100140.31;5037312;28;2119;-77
2021/05/10 09:36:32;;;;;;;;;;;;;;;32.13;24.00;100133.66;5037118;28;959;-77
2021/05/10 09:38:57;;;;;;;;;;;;;;;30.76;25.40;100130.22;5035085;28;1316;-78
2021/05/10 09:41:23;;;;;;;;;;;;;;;29.99;26.87;100138.88;5038934;28;876;-78
2021/05/10 09:44:02;;;;;;;;;;;;;;;29.94;26.88;100164.41;5037515;28;1851;-78
2021/05/10 09:46:38;;;;;;;;;;;;;;;30.29;26.03;100172.91;5042538;28;1879;-79
2021/05/10 09:49:04;;;;;;;;;;;;;;;30.45;26.21;100165.88;5036562;28;2048;-77
2021/05/10 09:51:29;;;;;;;;;;;;;;;31.85;24.16;100167.75;5035712;28;943;-77
2021/05/10 09:53:56;;;;;;;;;;;;;;;31.19;25.02;100161.78;5035844;28;2028;-77
2021/05/10 09:59:04;;;;;;;;;;;;;;;30.28;26.52;100199.00;5035401;28;1977;-77
2021/05/10 10:01:44;;;;;;;;;;;;;;;28.39;29.07;100197.47;5036039;28;988;-77
2021/05/10 10:04:10;;;;;;;;;;;;;;;27.68;31.10;100205.38;5035052;28;2028;-76
2021/05/10 10:06:36;;;;;;;;;;;;;;;25.93;35.49;100223.84;5034931;28;1998;-82
2021/05/10 10:09:03;;;;;;;;;;;;;;;24.53;38.34;100229.72;5035942;28;1193;-78
2021/05/10 10:11:28;;;;;;;;;;;;;;;23.70;40.21;100242.84;5035587;28;1008;-77
2021/05/10 10:13:56;;;;;;;;;;;;;;;23.04;42.16;100243.09;5036081;28;912;-78
2021/05/10 10:16:29;;;;;;;;;;;;;;;23.05;42.67;100246.72;5037044;28;2131;-79
2021/05/10 10:18:58;;;;;;;;;;;;;;;23.63;41.09;100238.22;5035515;28;2091;-78
2021/05/10 10:21:24;;;;;;;;;;;;;;;24.86;38.77;100225.81;5033869;28;1346;-78
2021/05/10 10:23:54;;;;;;;;;;;;;;;27.34;34.43;100235.69;5035591;28;888;-78
2021/05/10 10:26:22;;;;;;;;;;;;;;;27.93;33.25;100255.28;5034914;28;1949;-78
2021/05/10 10:28:48;;;;;;;;;;;;;;;28.28;31.96;100300.19;5034950;28;1247;-78
2021/05/10 10:31:17;;;;;;;;;;;;;;;27.04;33.67;100299.78;5035382;28;972;-77
2021/05/10 10:34:00;;;;;;;;;;;;;;;25.63;36.81;100324.38;5034997;28;1986;-77
2021/05/10 10:36:28;;;;;;;;;;;;;;;23.88;39.71;100337.38;5035422;28;984;-77
2021/05/10 10:39:14;;;;;;;;;;;;;;;23.13;41.59;100320.53;5035391;28;1342;-79
2021/05/10 10:41:58;;;;;;;;;;;;;;;22.62;42.00;100340.72;5036540;28;848;-77
2021/05/10 10:44:28;;;;;;;;;;;;;;;22.22;42.65;100344.41;5035170;28;2206;-77
2021/05/10 10:46:53;;;;;;;;;;;;;;;22.11;42.48;100347.47;5035620;28;1894;-77
2021/05/10 10:49:27;;;;;;;;;;;;;;;22.87;40.49;100337.25;5034763;28;2229;-77
2021/05/10 10:51:53;;;;;;;;;;;;;;;23.60;39.34;100353.84;5035740;28;910;-77
2021/05/10 10:54:28;;;;;;;;;;;;;;;24.32;37.71;100323.56;5035430;28;2039;-77
2021/05/10 10:56:59;;;;;;;;;;;;;;;26.36;33.63;100326.81;5035206;28;828;-77
2021/05/10 10:59:35;;;;;;;;;;;;;;;27.90;31.15;100347.75;5034797;28;1149;-78
2021/05/10 11:02:15;;;;;;;;;;;;;;;28.56;29.80;100340.63;5035095;28;2056;-79
2021/05/10 11:04:41;;;;;;;;;;;;;;;26.11;33.75;100358.94;5015703;28;829;-77
2021/05/10 11:07:06;;;;;;;;;;;;;;;23.99;37.59;100366.06;5028483;28;2024;-78
2021/05/10 11:09:52;;;;;;;;;;;;;;;22.94;40.55;100389.78;5039363;28;1186;-77
2021/05/10 11:12:52;;;;;;;;;;;;;;;22.12;42.30;100413.69;5039219;28;2006;-78
2021/05/10 11:15:38;;;;;;;;;;;;;;;21.29;43.36;100417.28;5039587;28;901;-78
2021/05/10 11:18:07;;;;;;;;;;;;;;;21.05;44.15;100416.47;5024040;28;1899;-78
2021/05/10 11:20:41;;;;;;;;;;;;;;;20.75;44.57;100415.34;5038691;28;896;-77
2021/05/10 11:23:21;;;;;;;;;;;;;;;20.62;45.06;100439.59;5038540;28;1992;-77
2021/05/10 11:25:47;;;;;;;;;;;;;;;20.54;45.44;100441.69;5039158;28;885;-78
2021/05/10 11:28:24;;;;;;;;;;;;;;;20.78;45.76;100439.75;5037287;28;2067;-77
2021/05/10 11:31:10;;;;;;;;;;;;;;;20.85;44.21;100445.25;5035364;28;4334;-79
2021/05/10 11:33:51;;;;;;;;;;;;;;;20.88;43.28;100454.03;5038172;28;3594;-78
2021/05/10 11:36:26;;;;;;;;;;;;;;;20.74;43.78;100453.03;5036494;28;2992;-77
2021/05/10 11:38:52;;;;;;;;;;;;;;;21.09;43.37;100456.50;5036525;28;1546;-76
2021/05/10 11:41:18;;;;;;;;;;;;;;;21.13;43.21;100457.25;5037686;28;2008;-78
2021/05/10 11:43:43;;;;;;;;;;;;;;;21.23;42.99;100456.28;5037513;28;801;-76
2021/05/10 11:46:09;;;;;;;;;;;;;;;21.39;42.84;100461.22;5040246;28;1906;-77
2021/05/10 11:48:41;;;;;;;;;;;;;;;21.54;42.53;100470.22;5039518;28;3052;-77
2021/05/10 11:51:22;;;;;;;;;;;;;;;21.72;42.35;100455.84;5019092;28;1997;-77
2021/05/10 11:54:05;;;;;;;;;;;;;;;21.84;41.63;100454.41;5037505;28;1817;-75
2021/05/10 11:56:38;;;;;;;;;;;;;;;22.08;41.23;100462.78;5038378;28;846;-77
2021/05/10 12:01:37;;;;;;;;;;;;;;;22.53;40.54;100453.84;5021282;28;2028;-77
2021/05/10 12:04:22;;;;;;;;;;;;;;;22.91;39.52;100471.06;5018350;28;809;-76
2021/05/10 12:06:48;;;;;;;;;;;;;;;22.91;39.59;100461.81;5018253;28;1875;-76
2021/05/10 12:09:33;;;;;;;;;;;;;;;23.03;39.96;100457.50;5017476;28;1276;-78
2021/05/10 12:12:19;;;;;;;;;;;;;;;23.37;39.41;100461.94;5036645;28;789;-78
2021/05/10 12:14:47;;;;;;;;;;;;;;;23.41;38.78;100465.44;5037857;28;877;-77
2021/05/10 12:17:27;;;;;;;;;;;;;;;23.47;39.24;100477.75;5037088;28;931;-76
2021/05/10 12:20:12;;;;;;;;;;;;;;;23.97;38.60;100468.00;5037246;28;1709;-78
2021/05/10 12:22:41;;;;;;;;;;;;;;;23.82;38.71;100478.09;5031866;28;1949;-76
2021/05/10 12:25:22;;;;;;;;;;;;;;;24.06;37.83;100487.09;5037886;28;3103;-76
2021/05/10 12:28:17;;;;;;;;;;;;;;;23.36;38.25;100497.75;5037789;28;2013;-76
2021/05/10 12:30:46;;;;;;;;;;;;;;;22.39;41.19;100496.31;5037142;28;1057;-78
2021/05/10 12:33:21;;;;;;;;;;;;;;;22.06;41.75;100499.78;5038774;28;2172;-77
2021/05/10 12:35:48;;;;;;;;;;;;;;;21.59;42.48;100522.28;5037633;28;1969;-76
2021/05/10 12:38:30;;;;;;;;;;;;;;;21.27;42.82;100500.34;5037400;28;1217;-76
2021/05/10 12:40:56;;;;;;;;;;;;;;;20.97;43.23;100524.44;5037586;28;865;-77
2021/05/10 12:43:23;;;;;;;;;;;;;;;20.85;44.15;100537.06;5037621;28;2499;-77
2021/05/10 12:45:57;;;;;;;;;;;;;;;20.74;44.19;100548.41;5038854;28;1988;-78
2021/05/10 12:48:24;;;;;;;;;;;;;;;20.34;47.80;100564.09;5040869;28;1957;-79
2021/05/10 12:51:14;;;;;;;;;;;;;;;19.80;50.03;100576.66;5039193;28;3399;-79
2021/05/10 12:53:55;;;;;;;;;;;;;;;19.53;51.33;100591.25;5036670;28;3959;-79
2021/05/10 12:56:20;;;;;;;;;;;;;;;19.31;52.29;100606.56;5040006;28;1943;-79
2021/05/10 12:58:48;;;;;;;;;;;;;;;19.04;53.40;100625.94;5041347;28;3270;-77